Time;durP1;ratioP1;P1;durP2;ratioP2;P2;SDS_P1;SDS_P2;PMS_P1;PMS_P2;Temp;Humidity;BMP_temperature;BMP_pressure;BME280_temperature;BME280_humidity;BME280_pressure;Samples;Min_cycle;Max_cycle;Signal;HPM_P1;HPM_P2
2021/07/03 00:01:03;;;;;;;8.23;4.97;;;16.80;99.60;;;;;;5053376;28;20124;-76
2021/07/03 00:03:30;;;;;;;8.85;5.32;;;16.80;99.90;;;;;;5046096;28;20120;-77
2021/07/03 00:05:57;;;;;;;7.95;5.50;;;16.90;99.70;;;;;;5053705;28;20153;-77
2021/07/03 00:08:27;;;;;;;8.77;5.18;;;16.90;99.90;;;;;;5055468;28;20105;-77
2021/07/03 00:10:57;;;;;;;7.15;5.18;;;16.90;99.80;;;;;;5054550;28;20041;-75
2021/07/03 00:13:24;;;;;;;7.78;5.00;;;17.00;99.60;;;;;;5031740;28;20053;-77
2021/07/03 00:15:52;;;;;;;9.20;5.80;;;17.00;99.40;;;;;;5063000;28;20075;-74
2021/07/03 00:18:19;;;;;;;7.50;5.22;;;17.00;98.30;;;;;;5057126;28;20494;-75
2021/07/03 00:20:47;;;;;;;10.30;6.10;;;16.80;98.10;;;;;;5053918;28;20136;-74
2021/07/03 00:23:14;;;;;;;8.85;6.13;;;16.60;98.20;;;;;;5053502;28;20223;-76
2021/07/03 00:25:41;;;;;;;8.82;5.80;;;16.40;99.10;;;;;;5053741;28;20091;-74
2021/07/03 00:28:10;;;;;;;8.60;5.30;;;16.30;99.30;;;;;;5051871;28;20127;-76
2021/07/03 00:30:37;;;;;;;8.68;6.10;;;16.20;99.80;;;;;;5052972;28;20157;-74
2021/07/03 00:33:04;;;;;;;8.45;5.70;;;16.30;99.90;;;;;;5042083;28;20541;-76
2021/07/03 00:35:32;;;;;;;8.35;5.47;;;16.30;99.90;;;;;;5045768;28;20120;-75
2021/07/03 00:37:59;;;;;;;7.93;5.15;;;16.30;99.90;;;;;;5046359;28;20084;-76
2021/07/03 00:40:27;;;;;;;8.95;5.72;;;16.40;99.90;;;;;;5060691;28;20091;-77
2021/07/03 00:42:54;;;;;;;7.82;5.28;;;16.40;99.90;;;;;;5052622;28;20049;-75
2021/07/03 00:45:23;;;;;;;7.75;5.38;;;16.40;99.90;;;;;;5052826;28;20553;-75
2021/07/03 00:47:51;;;;;;;8.25;4.93;;;16.50;99.90;;;;;;5053085;28;20110;-76
2021/07/03 00:50:18;;;;;;;6.90;4.88;;;16.50;99.90;;;;;;5052862;28;20148;-74
2021/07/03 00:52:45;;;;;;;7.18;4.95;;;16.50;99.90;;;;;;5053004;28;20049;-77
2021/07/03 00:55:15;;;;;;;7.93;5.32;;;16.50;99.90;;;;;;5052921;28;20136;-76
2021/07/03 00:57:43;;;;;;;9.68;5.07;;;16.60;99.90;;;;;;5051672;28;20563;-78
2021/07/03 01:00:13;;;;;;;8.32;5.53;;;16.60;99.90;;;;;;5052643;28;20486;-76
2021/07/03 01:02:42;;;;;;;7.75;4.90;;;16.60;99.90;;;;;;5052710;28;20127;-76
2021/07/03 01:05:09;;;;;;;7.70;4.97;;;16.60;99.90;;;;;;5052687;28;20068;-76
2021/07/03 01:07:38;;;;;;;7.72;5.22;;;16.60;99.80;;;;;;5059120;28;20088;-77
2021/07/03 01:10:16;;;;;;;8.13;5.15;;;16.60;99.40;;;;;;5058790;28;20080;-76
2021/07/03 01:12:47;;;;;;;9.10;5.50;;;16.60;99.00;;;;;;5057149;28;20104;-74
2021/07/03 01:15:14;;;;;;;7.88;5.30;;;16.50;99.10;;;;;;5063348;28;20487;-75
2021/07/03 01:17:43;;;;;;;7.68;4.72;;;16.40;99.20;;;;;;5062861;28;20069;-76
2021/07/03 01:20:12;;;;;;;7.07;4.90;;;16.30;99.50;;;;;;5059480;28;20462;-74
2021/07/03 01:22:43;;;;;;;7.30;4.93;;;16.30;99.70;;;;;;5052710;28;20124;-76
2021/07/03 01:25:12;;;;;;;7.53;5.18;;;16.30;99.80;;;;;;5052387;28;20053;-74
2021/07/03 01:27:39;;;;;;;8.30;5.35;;;16.30;99.00;;;;;;5052481;28;20084;-75
2021/07/03 01:30:11;;;;;;;7.55;5.03;;;16.20;98.90;;;;;;5052251;28;20543;-74
2021/07/03 01:32:39;;;;;;;7.05;4.60;;;16.20;99.30;;;;;;5052706;28;20128;-74
2021/07/03 01:35:07;;;;;;;8.18;5.15;;;16.20;99.70;;;;;;5051980;28;20564;-76
2021/07/03 01:37:35;;;;;;;7.90;5.10;;;16.10;99.50;;;;;;5052467;28;20128;-76
2021/07/03 01:40:04;;;;;;;8.90;4.82;;;16.10;99.60;;;;;;5052577;28;20079;-75
2021/07/03 01:42:31;;;;;;;8.00;5.30;;;16.10;99.80;;;;;;5044483;28;20131;-77
2021/07/03 01:44:58;;;;;;;7.82;5.13;;;16.00;99.80;;;;;;5052475;28;20128;-74
2021/07/03 01:47:25;;;;;;;8.07;4.97;;;16.00;99.60;;;;;;5052171;28;20168;-76
2021/07/03 01:49:52;;;;;;;9.07;5.35;;;15.90;99.50;;;;;;5052127;28;20144;-77
2021/07/03 01:52:19;;;;;;;7.85;4.97;;;15.90;99.20;;;;;;5052112;28;20132;-76
2021/07/03 01:54:46;;;;;;;8.07;4.82;;;15.70;99.20;;;;;;5043975;28;20124;-77
2021/07/03 01:57:15;;;;;;;7.07;4.82;;;15.60;99.40;;;;;;5042617;28;20148;-73
2021/07/03 01:59:42;;;;;;;9.05;4.95;;;15.50;99.80;;;;;;5046204;28;20087;-75
2021/07/03 02:02:09;;;;;;;8.20;4.97;;;15.50;99.90;;;;;;5052120;28;20141;-75
2021/07/03 02:04:36;;;;;;;9.32;5.53;;;15.40;99.90;;;;;;5052416;28;20087;-77
2021/07/03 02:07:04;;;;;;;8.43;4.93;;;15.30;99.90;;;;;;5052386;28;20136;-76
2021/07/03 02:09:31;;;;;;;7.15;4.75;;;15.20;99.90;;;;;;5044398;28;20124;-77
2021/07/03 02:11:58;;;;;;;7.35;4.75;;;15.20;99.90;;;;;;5052053;28;20136;-77
2021/07/03 02:14:26;;;;;;;8.50;4.82;;;15.20;99.90;;;;;;5051824;28;20135;-74
2021/07/03 02:16:53;;;;;;;7.90;5.20;;;15.20;99.90;;;;;;5052296;28;20045;-77
2021/07/03 02:19:20;;;;;;;7.18;4.88;;;15.20;99.90;;;;;;5053336;28;20045;-77
2021/07/03 02:21:47;;;;;;;7.85;5.00;;;15.20;99.90;;;;;;5055671;28;20067;-75
2021/07/03 02:24:15;;;;;;;8.20;5.38;;;15.20;99.90;;;;;;5056850;28;20106;-76
2021/07/03 02:26:42;;;;;;;7.85;5.45;;;15.30;99.90;;;;;;5055442;28;20133;-77
2021/07/03 02:29:09;;;;;;;9.52;5.32;;;15.30;99.90;;;;;;5056363;28;20554;-77
2021/07/03 02:31:38;;;;;;;8.93;5.22;;;15.40;99.90;;;;;;5055477;28;20134;-76
2021/07/03 02:34:05;;;;;;;8.32;5.57;;;15.40;99.90;;;;;;5055441;28;20049;-76
2021/07/03 02:36:33;;;;;;;8.02;5.15;;;15.40;99.90;;;;;;5048070;28;20379;-77
2021/07/03 02:39:00;;;;;;;8.15;5.07;;;15.40;99.90;;;;;;5055580;28;20120;-74
2021/07/03 02:41:27;;;;;;;8.27;4.97;;;15.40;99.90;;;;;;5054806;28;20145;-76
2021/07/03 02:43:54;;;;;;;8.27;5.50;;;15.40;99.90;;;;;;5057366;28;20080;-76
2021/07/03 02:46:21;;;;;;;7.40;5.13;;;15.30;99.90;;;;;;5057057;28;20175;-77
2021/07/03 02:48:50;;;;;;;7.28;4.65;;;15.30;99.90;;;;;;5057259;28;20132;-77
2021/07/03 02:51:17;;;;;;;7.93;5.30;;;15.30;99.90;;;;;;5055614;28;20135;-75
2021/07/03 02:53:44;;;;;;;8.35;4.60;;;15.30;99.90;;;;;;5054989;28;20063;-77
2021/07/03 02:56:11;;;;;;;7.97;4.57;;;15.30;99.90;;;;;;5054945;28;20137;-75
2021/07/03 02:58:38;;;;;;;7.93;5.07;;;15.30;99.90;;;;;;5055057;28;20124;-76
2021/07/03 03:01:05;;;;;;;8.38;4.78;;;15.30;99.90;;;;;;5054884;28;20045;-77
2021/07/03 03:03:33;;;;;;;8.18;5.15;;;15.30;99.90;;;;;;5052845;28;20120;-76
2021/07/03 03:06:01;;;;;;;7.88;5.30;;;15.30;99.90;;;;;;5053345;28;20125;-74
2021/07/03 03:08:28;;;;;;;8.45;5.13;;;15.30;99.90;;;;;;5051796;28;20128;-76
2021/07/03 03:10:55;;;;;;;7.97;5.75;;;15.20;99.90;;;;;;5052426;28;20513;-75
2021/07/03 03:13:22;;;;;;;7.28;5.05;;;15.20;99.90;;;;;;5052101;28;20522;-76
2021/07/03 03:15:49;;;;;;;9.52;5.55;;;15.00;99.90;;;;;;5052600;28;20125;-75
2021/07/03 03:18:16;;;;;;;7.78;5.32;;;15.00;99.90;;;;;;5051832;28;20132;-74
2021/07/03 03:20:43;;;;;;;7.47;4.32;;;14.90;99.90;;;;;;5052485;28;20056;-77
2021/07/03 03:23:12;;;;;;;7.75;4.38;;;14.80;99.90;;;;;;5051929;28;20481;-76
2021/07/03 03:25:39;;;;;;;8.13;5.10;;;14.70;99.90;;;;;;5052281;28;20128;-78
2021/07/03 03:28:06;;;;;;;7.55;5.00;;;14.80;99.90;;;;;;5061903;28;20052;-77
2021/07/03 03:30:33;;;;;;;7.80;5.07;;;14.70;99.90;;;;;;5062020;28;20037;-77
2021/07/03 03:33:00;;;;;;;6.93;5.10;;;14.80;99.90;;;;;;5061522;28;20489;-77
2021/07/03 03:35:27;;;;;;;7.47;4.72;;;14.80;99.90;;;;;;5062781;28;20069;-76
2021/07/03 03:37:54;;;;;;;7.50;4.88;;;14.80;99.90;;;;;;5063202;28;20041;-73
2021/07/03 03:40:26;;;;;;;8.25;5.22;;;14.90;99.90;;;;;;5061971;28;20506;-75
2021/07/03 03:42:53;;;;;;;8.57;5.35;;;14.90;99.90;;;;;;5056714;28;20057;-77
2021/07/03 03:45:20;;;;;;;7.43;4.55;;;14.90;99.90;;;;;;5051596;28;20131;-76
2021/07/03 03:47:47;;;;;;;7.70;4.75;;;14.90;99.90;;;;;;5052152;28;20071;-75
2021/07/03 03:50:15;;;;;;;7.40;5.03;;;14.90;99.90;;;;;;5055087;28;20451;-74
2021/07/03 03:52:42;;;;;;;7.80;5.38;;;14.80;99.90;;;;;;5055557;28;20110;-77
2021/07/03 03:55:10;;;;;;;6.65;4.60;;;14.80;99.90;;;;;;5051352;28;20128;-74
2021/07/03 03:57:39;;;;;;;7.63;4.97;;;14.80;99.90;;;;;;5051737;28;20072;-76
2021/07/03 04:00:09;;;;;;;7.78;4.90;;;14.80;99.90;;;;;;5051234;28;20106;-77
2021/07/03 04:02:36;;;;;;;6.13;4.45;;;14.80;99.90;;;;;;5053629;28;20148;-76
2021/07/03 04:05:04;;;;;;;8.68;4.80;;;14.80;99.90;;;;;;5053596;28;20132;-76
2021/07/03 04:07:31;;;;;;;8.18;5.25;;;14.70;99.90;;;;;;5053666;28;20401;-76
2021/07/03 04:09:58;;;;;;;8.02;5.30;;;14.60;99.90;;;;;;5053228;28;20127;-76
2021/07/03 04:12:25;;;;;;;7.70;5.05;;;14.60;99.90;;;;;;5053269;28;20136;-75
2021/07/03 04:14:54;;;;;;;6.80;4.53;;;14.50;99.90;;;;;;5053621;28;20106;-76
2021/07/03 04:17:21;;;;;;;7.55;4.82;;;14.50;99.90;;;;;;5053598;28;20136;-75
2021/07/03 04:19:48;;;;;;;7.60;4.65;;;14.50;99.90;;;;;;5053671;28;20582;-74
2021/07/03 04:22:16;;;;;;;8.15;5.32;;;14.50;99.90;;;;;;5053309;28;20548;-77
2021/07/03 04:24:43;;;;;;;8.15;5.07;;;14.50;99.90;;;;;;5053411;28;20514;-76
2021/07/03 04:27:10;;;;;;;7.57;4.72;;;14.60;99.90;;;;;;5052647;28;20547;-75
2021/07/03 04:29:37;;;;;;;7.25;4.90;;;14.70;99.90;;;;;;5053240;28;20465;-77
2021/07/03 04:32:07;;;;;;;7.07;4.60;;;14.70;99.90;;;;;;5053140;28;20128;-77
2021/07/03 04:34:34;;;;;;;7.15;4.50;;;14.80;99.90;;;;;;5045824;28;20087;-75
2021/07/03 04:37:01;;;;;;;7.63;5.18;;;14.90;99.90;;;;;;5053170;28;20573;-77
2021/07/03 04:39:28;;;;;;;8.57;5.32;;;14.90;99.90;;;;;;5052395;28;20570;-75
2021/07/03 04:41:55;;;;;;;6.55;4.50;;;15.00;99.90;;;;;;5053044;28;20128;-78
2021/07/03 04:44:23;;;;;;;9.05;5.18;;;15.10;99.90;;;;;;5066955;22;20135;-77
2021/07/03 04:46:50;;;;;;;8.32;4.78;;;15.10;99.90;;;;;;5052888;28;20127;-78
2021/07/03 04:49:18;;;;;;;8.50;5.43;;;15.20;99.90;;;;;;5052583;28;20079;-77
2021/07/03 04:51:45;;;;;;;10.18;5.28;;;15.20;99.90;;;;;;5053119;28;20124;-75
2021/07/03 04:54:12;;;;;;;9.35;5.47;;;15.30;99.90;;;;;;5051185;28;20052;-76
2021/07/03 04:56:40;;;;;;;9.23;5.32;;;15.30;99.90;;;;;;5049470;28;20132;-75
2021/07/03 04:59:07;;;;;;;8.27;5.05;;;15.30;99.90;;;;;;5051782;28;20080;-75
2021/07/03 05:01:34;;;;;;;7.22;5.03;;;15.40;99.90;;;;;;5051494;28;20124;-75
2021/07/03 05:04:01;;;;;;;8.23;4.60;;;15.40;99.90;;;;;;5052359;28;20489;-76
2021/07/03 05:06:29;;;;;;;7.50;5.13;;;15.40;99.90;;;;;;5044790;28;20128;-75
2021/07/03 05:08:57;;;;;;;9.45;5.68;;;15.50;99.90;;;;;;5053045;28;20136;-76
2021/07/03 05:11:24;;;;;;;7.65;5.05;;;15.60;99.90;;;;;;5052247;28;20045;-76
2021/07/03 05:13:51;;;;;;;8.07;4.82;;;15.60;99.90;;;;;;5052147;28;20195;-76
2021/07/03 05:16:18;;;;;;;7.22;5.03;;;15.60;99.90;;;;;;5052749;28;20135;-74
2021/07/03 05:18:45;;;;;;;8.43;5.10;;;15.70;99.90;;;;;;5049146;28;20135;-74
2021/07/03 05:21:12;;;;;;;8.55;4.80;;;15.70;99.90;;;;;;5055965;28;20132;-77
2021/07/03 05:23:40;;;;;;;6.85;4.63;;;15.70;99.90;;;;;;5052361;28;20465;-76
2021/07/03 05:26:07;;;;;;;6.93;4.80;;;15.80;99.90;;;;;;5051679;28;20570;-75
2021/07/03 05:28:34;;;;;;;9.38;5.30;;;15.90;99.90;;;;;;5044603;28;20124;-78
2021/07/03 05:31:01;;;;;;;8.82;5.15;;;16.00;99.90;;;;;;5051932;28;20131;-75
2021/07/03 05:33:30;;;;;;;9.95;5.60;;;16.00;99.90;;;;;;5052179;28;20127;-76
2021/07/03 05:35:57;;;;;;;8.93;5.35;;;16.00;99.90;;;;;;5052239;28;20099;-76
2021/07/03 05:38:24;;;;;;;7.35;4.82;;;16.00;99.90;;;;;;5051997;28;20506;-77
2021/07/03 05:40:52;;;;;;;9.32;6.30;;;16.00;99.90;;;;;;5051916;28;20151;-76
2021/07/03 05:43:19;;;;;;;9.32;5.63;;;16.00;99.90;;;;;;5052965;28;20448;-76
2021/07/03 05:45:46;;;;;;;7.90;5.22;;;16.10;99.90;;;;;;5052539;28;20132;-76
2021/07/03 05:48:13;;;;;;;7.95;5.60;;;16.10;99.90;;;;;;5045866;28;20468;-75
2021/07/03 05:50:40;;;;;;;7.40;5.32;;;16.10;99.90;;;;;;5052196;28;20429;-77
2021/07/03 05:53:07;;;;;;;7.70;5.10;;;16.20;99.90;;;;;;5052047;28;20136;-76
2021/07/03 05:55:34;;;;;;;7.57;5.07;;;16.30;99.90;;;;;;5052010;28;20132;-76
2021/07/03 05:58:03;;;;;;;8.02;4.55;;;16.40;99.90;;;;;;5048574;28;20136;-75
2021/07/03 06:00:29;;;;;;;7.88;5.10;;;16.50;99.90;;;;;;5053761;28;20507;-74
2021/07/03 06:02:57;;;;;;;7.05;4.68;;;16.60;99.90;;;;;;5056020;28;20053;-76
2021/07/03 06:05:24;;;;;;;8.05;4.80;;;16.60;99.90;;;;;;5056214;28;20109;-75
2021/07/03 06:07:50;;;;;;;9.20;5.47;;;16.70;99.90;;;;;;5055768;28;20128;-74
2021/07/03 06:10:18;;;;;;;7.85;5.38;;;16.80;99.90;;;;;;5055707;28;20557;-74
2021/07/03 06:12:45;;;;;;;7.68;5.13;;;16.80;99.90;;;;;;5056036;28;20128;-78
2021/07/03 06:15:15;;;;;;;9.10;5.90;;;16.90;99.90;;;;;;5055817;28;20156;-79
2021/07/03 06:17:42;;;;;;;9.45;5.70;;;16.90;99.90;;;;;;5056172;28;20183;-78
2021/07/03 06:20:11;;;;;;;9.88;5.95;;;16.90;99.90;;;;;;5055729;28;20045;-76
2021/07/03 06:22:39;;;;;;;8.60;5.60;;;17.00;99.80;;;;;;5054716;28;20052;-78
2021/07/03 06:25:09;;;;;;;9.10;6.07;;;17.00;99.80;;;;;;5053345;28;20136;-77
2021/07/03 06:27:37;;;;;;;8.70;5.38;;;17.00;99.70;;;;;;5055316;28;20128;-80
2021/07/03 06:30:05;;;;;;;8.63;5.68;;;17.00;99.70;;;;;;5055491;28;20091;-77
2021/07/03 06:32:34;;;;;;;9.55;5.88;;;17.00;99.70;;;;;;5048224;28;20125;-76
2021/07/03 06:35:01;;;;;;;9.15;5.32;;;17.10;99.70;;;;;;5055390;28;20552;-77
2021/07/03 06:37:28;;;;;;;8.43;5.65;;;17.10;99.40;;;;;;5054477;28;20073;-79
2021/07/03 06:39:55;;;;;;;7.80;5.32;;;17.10;99.40;;;;;;5046988;28;20126;-78
2021/07/03 06:42:23;;;;;;;8.23;5.55;;;17.20;99.40;;;;;;5051911;28;20153;-79
2021/07/03 06:44:51;;;;;;;8.15;4.90;;;17.20;99.50;;;;;;5054766;28;20063;-79
2021/07/03 06:47:19;;;;;;;7.63;4.90;;;17.30;99.50;;;;;;5054899;28;20071;-77
2021/07/03 06:49:49;;;;;;;8.00;4.60;;;17.30;99.50;;;;;;5054779;28;20549;-75
2021/07/03 06:52:16;;;;;;;8.50;5.60;;;17.40;99.40;;;;;;5051877;28;20101;-75
2021/07/03 06:54:43;;;;;;;9.80;5.53;;;17.50;99.20;;;;;;5047966;28;20468;-77
2021/07/03 06:57:12;;;;;;;8.60;5.63;;;17.60;98.90;;;;;;5055099;28;20083;-75
2021/07/03 06:59:39;;;;;;;8.70;5.93;;;17.70;98.80;;;;;;5051747;28;20138;-78
2021/07/03 07:02:06;;;;;;;7.95;5.70;;;17.70;98.80;;;;;;5042026;28;20505;-77
2021/07/03 07:04:34;;;;;;;8.35;5.50;;;17.70;98.70;;;;;;5050489;28;20106;-77
2021/07/03 07:07:03;;;;;;;9.32;5.28;;;17.80;98.70;;;;;;5053903;28;20137;-76
2021/07/03 07:09:30;;;;;;;8.80;5.72;;;17.80;98.80;;;;;;5054857;28;20084;-77
2021/07/03 07:11:58;;;;;;;9.65;5.53;;;17.90;98.70;;;;;;5054490;28;20045;-78
2021/07/03 07:14:26;;;;;;;8.32;5.88;;;18.00;98.60;;;;;;5046983;28;20140;-77
2021/07/03 07:16:54;;;;;;;6.97;5.00;;;18.00;98.40;;;;;;5054552;28;20094;-77
2021/07/03 07:19:21;;;;;;;8.55;5.53;;;18.10;98.40;;;;;;5052674;28;20048;-77
2021/07/03 07:21:49;;;;;;;7.70;5.03;;;18.20;98.20;;;;;;5054733;28;20133;-79
2021/07/03 07:24:17;;;;;;;8.07;5.10;;;18.30;98.20;;;;;;5054690;28;20123;-77
2021/07/03 07:26:45;;;;;;;9.43;5.68;;;18.30;98.00;;;;;;5054884;28;20127;-78
2021/07/03 07:29:12;;;;;;;9.05;5.60;;;18.40;97.80;;;;;;5054213;28;20041;-77
2021/07/03 07:31:40;;;;;;;8.38;4.72;;;18.40;97.90;;;;;;5054112;28;20103;-78
2021/07/03 07:34:07;;;;;;;7.18;4.90;;;18.50;98.00;;;;;;5053769;28;20048;-77
2021/07/03 07:36:34;;;;;;;6.93;4.90;;;18.60;98.20;;;;;;5053694;28;20128;-75
2021/07/03 07:39:01;;;;;;;7.53;5.20;;;18.60;98.20;;;;;;5048827;28;20045;-76
2021/07/03 07:41:29;;;;;;;8.40;5.40;;;18.70;98.20;;;;;;5049371;28;20076;-76
2021/07/03 07:43:57;;;;;;;9.75;5.65;;;18.70;98.20;;;;;;5054573;28;20144;-76
2021/07/03 07:46:24;;;;;;;7.68;4.93;;;18.80;98.30;;;;;;5053008;28;20124;-77
2021/07/03 07:48:51;;;;;;;7.72;5.18;;;18.80;98.30;;;;;;5052250;28;20099;-77
2021/07/03 07:51:20;;;;;;;7.15;4.70;;;18.90;98.20;;;;;;5051586;28;20073;-76
2021/07/03 07:53:47;;;;;;;7.70;5.05;;;18.90;98.20;;;;;;5048569;28;20402;-79
2021/07/03 07:56:17;;;;;;;9.02;5.80;;;19.00;98.10;;;;;;5054290;28;20482;-77
2021/07/03 07:58:46;;;;;;;7.72;5.38;;;19.00;98.00;;;;;;5055930;28;20106;-79
2021/07/03 08:01:14;;;;;;;7.45;4.82;;;19.10;98.00;;;;;;5053944;28;20501;-77
2021/07/03 08:03:41;;;;;;;7.20;4.93;;;19.10;98.00;;;;;;5053295;28;20049;-76
2021/07/03 08:06:08;;;;;;;7.05;4.70;;;19.20;97.80;;;;;;5053913;28;20139;-78
2021/07/03 08:08:35;;;;;;;6.95;4.72;;;19.30;97.80;;;;;;5050190;28;20052;-79
2021/07/03 08:11:03;;;;;;;7.32;4.75;;;19.40;97.90;;;;;;5061015;28;20041;-76
2021/07/03 08:13:30;;;;;;;7.68;4.65;;;19.40;98.00;;;;;;5057686;28;20072;-79
2021/07/03 08:16:00;;;;;;;8.32;5.72;;;19.50;97.90;;;;;;5045382;28;20490;-77
2021/07/03 08:18:27;;;;;;;9.63;6.10;;;19.60;97.60;;;;;;5052349;28;20522;-78
2021/07/03 08:20:55;;;;;;;8.13;5.38;;;19.70;97.30;;;;;;5050950;28;20466;-77
2021/07/03 08:23:22;;;;;;;9.05;5.75;;;19.80;97.10;;;;;;5051639;28;20878;-77
2021/07/03 08:25:50;;;;;;;9.27;5.40;;;19.80;96.80;;;;;;5047938;28;20133;-76
2021/07/03 08:28:17;;;;;;;7.30;5.00;;;19.90;96.40;;;;;;5051776;28;20073;-79
2021/07/03 08:30:44;;;;;;;7.35;4.45;;;19.90;96.00;;;;;;5057972;28;20153;-78
2021/07/03 08:33:13;;;;;;;6.63;4.50;;;20.00;95.60;;;;;;5057503;28;20045;-79
2021/07/03 08:35:40;;;;;;;7.88;4.72;;;20.10;95.50;;;;;;5056713;28;20494;-75
2021/07/03 08:38:07;;;;;;;6.22;4.20;;;20.10;95.50;;;;;;5058240;28;20464;-77
2021/07/03 08:40:34;;;;;;;6.10;4.15;;;20.20;95.40;;;;;;5062226;28;20068;-79
2021/07/03 08:43:01;;;;;;;8.60;4.32;;;20.30;95.40;;;;;;5056827;28;20543;-79
2021/07/03 08:45:28;;;;;;;6.32;4.28;;;20.40;95.20;;;;;;5053310;28;20144;-78
2021/07/03 08:47:55;;;;;;;7.47;4.90;;;20.40;94.60;;;;;;5051972;28;20128;-76
2021/07/03 08:50:24;;;;;;;6.47;3.90;;;20.50;94.60;;;;;;5053045;28;20139;-77
2021/07/03 08:52:51;;;;;;;6.63;4.47;;;20.50;94.30;;;;;;5052634;28;20132;-79
2021/07/03 08:55:21;;;;;;;7.28;4.38;;;20.60;94.20;;;;;;5052237;28;20139;-77
2021/07/03 08:57:51;;;;;;;5.53;3.58;;;20.60;94.10;;;;;;5052808;28;20053;-78
2021/07/03 09:00:22;;;;;;;5.68;3.97;;;20.70;94.00;;;;;;5044006;28;20055;-78
2021/07/03 09:02:49;;;;;;;7.10;4.45;;;20.80;93.80;;;;;;5052770;28;20136;-79
2021/07/03 09:05:31;;;;;;;7.57;4.63;;;20.90;93.60;;;;;;5052088;28;20076;-79
2021/07/03 09:08:04;;;;;;;6.07;3.83;;;20.90;93.50;;;;;;5052313;28;20057;-77
2021/07/03 09:10:34;;;;;;;6.60;4.25;;;21.00;93.40;;;;;;5050443;28;20124;-74
2021/07/03 09:13:01;;;;;;;7.50;4.03;;;21.00;93.30;;;;;;5056524;28;20072;-79
2021/07/03 09:15:31;;;;;;;5.82;3.75;;;21.10;93.20;;;;;;5051909;28;20136;-80
2021/07/03 09:18:00;;;;;;;6.53;4.03;;;21.20;93.00;;;;;;5052271;28;20478;-79
2021/07/03 09:20:34;;;;;;;5.55;4.10;;;21.30;92.50;;;;;;5050747;28;20124;-77
2021/07/03 09:23:08;;;;;;;6.78;4.00;;;21.30;92.30;;;;;;5052471;28;20068;-78
2021/07/03 09:25:37;;;;;;;5.95;3.83;;;21.40;92.20;;;;;;5051680;28;20049;-78
2021/07/03 09:28:12;;;;;;;4.93;3.35;;;21.50;92.10;;;;;;5050323;28;20068;-79
2021/07/03 09:30:40;;;;;;;5.72;3.90;;;21.50;91.70;;;;;;5035010;28;20466;-77
2021/07/03 09:33:07;;;;;;;5.80;3.80;;;21.60;91.60;;;;;;5055403;28;20065;-79
2021/07/03 09:35:36;;;;;;;5.32;3.55;;;21.70;91.50;;;;;;5053087;28;20562;-76
2021/07/03 09:38:07;;;;;;;4.97;3.40;;;21.70;91.50;;;;;;5054495;28;20087;-79
2021/07/03 09:40:37;;;;;;;5.50;3.40;;;21.80;91.50;;;;;;5048962;28;20075;-79
2021/07/03 09:43:08;;;;;;;6.63;3.80;;;21.90;91.20;;;;;;5054966;28;20088;-77
2021/07/03 09:45:36;;;;;;;5.32;3.50;;;21.90;90.70;;;;;;5052203;28;20135;-76
2021/07/03 09:48:06;;;;;;;5.68;3.40;;;22.00;90.10;;;;;;5055883;28;20120;-74
2021/07/03 09:50:34;;;;;;;4.65;3.20;;;22.00;89.80;;;;;;5056004;28;20521;-78
2021/07/03 09:53:02;;;;;;;5.85;3.67;;;22.00;89.70;;;;;;5055529;28;20123;-77
2021/07/03 09:55:29;;;;;;;5.38;3.45;;;22.10;89.40;;;;;;5055693;28;20045;-78
2021/07/03 09:57:58;;;;;;;5.15;3.67;;;22.20;88.90;;;;;;5056011;28;20128;-76
2021/07/03 10:00:26;;;;;;;5.40;3.55;;;22.20;89.10;;;;;;5055826;28;20402;-77
2021/07/03 10:02:53;;;;;;;5.05;3.13;;;22.30;88.70;;;;;;5056560;28;20127;-75
2021/07/03 10:05:23;;;;;;;4.68;3.17;;;22.40;88.50;;;;;;5053529;28;20128;-78
2021/07/03 10:07:59;;;;;;;5.95;4.05;;;22.50;88.30;;;;;;5059748;28;20599;-77
2021/07/03 10:10:29;;;;;;;5.45;3.70;;;22.60;87.40;;;;;;5056265;28;20124;-74
2021/07/03 10:13:05;;;;;;;5.20;3.40;;;22.60;85.70;;;;;;5055454;28;20049;-76
2021/07/03 10:15:35;;;;;;;5.72;3.58;;;22.60;85.10;;;;;;5051747;28;20132;-76
2021/07/03 10:18:11;;;;;;;5.00;3.35;;;22.60;84.30;;;;;;5054397;28;20499;-79
2021/07/03 10:20:38;;;;;;;6.03;3.70;;;22.60;83.70;;;;;;5048923;28;20497;-78
2021/07/03 10:23:07;;;;;;;5.05;3.30;;;22.70;83.10;;;;;;5055335;28;20148;-76
2021/07/03 10:25:37;;;;;;;5.40;3.30;;;22.70;83.10;;;;;;5055780;28;20037;-78
2021/07/03 10:28:08;;;;;;;5.00;3.50;;;22.70;82.90;;;;;;5056046;28;20462;-80
2021/07/03 10:30:38;;;;;;;6.00;3.80;;;22.70;81.60;;;;;;5048865;28;20052;-80
2021/07/03 10:33:12;;;;;;;6.60;4.50;;;22.80;79.10;;;;;;5037613;28;20128;-80
2021/07/03 10:35:49;;;;;;;6.68;4.28;;;22.80;78.10;;;;;;5055447;28;20140;-79
2021/07/03 10:38:24;;;;;;;5.95;3.83;;;22.80;77.50;;;;;;5053656;28;20490;-78
2021/07/03 10:40:56;;;;;;;5.85;3.88;;;22.80;77.70;;;;;;5055502;28;20051;-80
2021/07/03 10:43:23;;;;;;;5.53;3.60;;;22.80;77.60;;;;;;5054588;28;20059;-79
2021/07/03 10:45:52;;;;;;;5.18;3.53;;;22.90;77.40;;;;;;5055191;28;20079;-77
2021/07/03 10:48:24;;;;;;;5.72;3.50;;;22.90;77.30;;;;;;5054568;28;20080;-78
2021/07/03 10:50:55;;;;;;;5.53;3.40;;;23.00;77.00;;;;;;5055576;28;20077;-78
2021/07/03 10:53:27;;;;;;;5.72;3.58;;;23.00;77.90;;;;;;5056033;28;20088;-79
2021/07/03 10:55:57;;;;;;;5.85;4.05;;;23.10;78.40;;;;;;5055328;28;20140;-76
2021/07/03 10:58:30;;;;;;;5.70;3.63;;;23.10;77.90;;;;;;5041296;28;20105;-78
2021/07/03 11:01:09;;;;;;;5.13;3.38;;;23.20;78.10;;;;;;5038781;28;20132;-77
2021/07/03 11:03:44;;;;;;;5.15;3.63;;;23.30;78.20;;;;;;5059581;28;20047;-77
2021/07/03 11:06:17;;;;;;;5.43;3.35;;;23.40;76.30;;;;;;5058355;28;20104;-78
2021/07/03 11:08:46;;;;;;;4.72;3.28;;;23.40;75.70;;;;;;5064577;28;20077;-78
2021/07/03 11:11:16;;;;;;;4.80;3.30;;;23.40;75.60;;;;;;5055159;28;20088;-77
2021/07/03 11:13:46;;;;;;;4.78;3.25;;;23.40;75.30;;;;;;5055275;28;20081;-76
2021/07/03 11:16:15;;;;;;;5.40;3.20;;;23.40;75.10;;;;;;5054943;28;20140;-77
2021/07/03 11:18:44;;;;;;;5.57;3.72;;;23.50;74.60;;;;;;5054537;28;20562;-78
2021/07/03 11:21:14;;;;;;;5.90;3.90;;;23.50;74.00;;;;;;5055225;28;20052;-78
2021/07/03 11:23:41;;;;;;;6.22;4.15;;;23.50;73.50;;;;;;5054994;28;20132;-77
2021/07/03 11:26:11;;;;;;;5.03;3.70;;;23.60;71.90;;;;;;5054659;28;20128;-77
2021/07/03 11:28:39;;;;;;;6.47;4.60;;;23.60;71.50;;;;;;5054789;28;20143;-77
2021/07/03 11:31:07;;;;;;;7.30;4.20;;;23.60;72.10;;;;;;5054693;28;20134;-79
2021/07/03 11:33:36;;;;;;;5.85;3.90;;;23.70;72.80;;;;;;5054791;28;20135;-79
2021/07/03 11:36:05;;;;;;;5.47;3.40;;;23.70;72.70;;;;;;5054709;28;20143;-77
2021/07/03 11:38:34;;;;;;;6.05;3.95;;;23.70;72.00;;;;;;5054414;28;20443;-77
2021/07/03 11:41:04;;;;;;;5.75;3.53;;;23.80;72.10;;;;;;5054055;28;20505;-79
2021/07/03 11:43:33;;;;;;;5.28;3.38;;;23.80;72.90;;;;;;5054229;28;20144;-78
2021/07/03 11:46:04;;;;;;;4.65;3.22;;;23.90;71.50;;;;;;5054283;28;20132;-78
2021/07/03 11:48:31;;;;;;;5.93;3.22;;;24.00;69.90;;;;;;5054600;28;20045;-78
2021/07/03 11:51:00;;;;;;;4.95;3.25;;;24.00;70.20;;;;;;5060436;28;20080;-79
2021/07/03 11:53:31;;;;;;;4.45;3.05;;;24.10;69.80;;;;;;5065160;28;20072;-79
2021/07/03 11:56:01;;;;;;;4.90;3.30;;;24.20;69.40;;;;;;5065847;28;20104;-78
2021/07/03 11:58:30;;;;;;;5.47;3.63;;;24.20;69.00;;;;;;5066059;28;20063;-77
2021/07/03 12:01:00;;;;;;;5.05;3.50;;;24.20;69.20;;;;;;5057111;28;20064;-76
2021/07/03 12:03:30;;;;;;;6.35;3.78;;;24.20;67.40;;;;;;5054243;28;20076;-79
2021/07/03 12:05:59;;;;;;;4.80;3.30;;;24.20;67.10;;;;;;5054382;28;20133;-75
2021/07/03 12:08:32;;;;;;;4.75;3.30;;;24.20;67.00;;;;;;5054118;28;20077;-79
2021/07/03 12:11:01;;;;;;;4.40;2.88;;;24.30;66.70;;;;;;5053676;28;20091;-79
2021/07/03 12:13:31;;;;;;;4.60;3.30;;;24.30;66.60;;;;;;5054097;28;20102;-78
2021/07/03 12:16:11;;;;;;;4.53;2.95;;;24.30;66.40;;;;;;5053888;28;20136;-79
2021/07/03 12:18:43;;;;;;;4.35;3.00;;;24.40;66.30;;;;;;5052064;28;20060;-78
2021/07/03 12:21:13;;;;;;;5.15;3.45;;;24.40;66.30;;;;;;5053073;28;20053;-78
2021/07/03 12:23:55;;;;;;;4.68;3.00;;;24.40;66.00;;;;;;5051071;28;20148;-77
2021/07/03 12:26:25;;;;;;;5.10;3.47;;;24.50;66.00;;;;;;5052709;28;20132;-78
2021/07/03 12:28:56;;;;;;;4.97;3.05;;;24.60;66.40;;;;;;5053603;28;20044;-77
2021/07/03 12:31:31;;;;;;;4.55;2.80;;;24.80;66.40;;;;;;5058785;28;20148;-79
2021/07/03 12:34:07;;;;;;;4.15;2.80;;;25.00;67.50;;;;;;5045833;28;20083;-78
2021/07/03 12:36:41;;;;;;;4.75;3.00;;;25.10;66.50;;;;;;5055174;28;20052;-78
2021/07/03 12:39:12;;;;;;;5.10;3.20;;;25.20;65.70;;;;;;5059412;28;20458;-78
2021/07/03 12:41:42;;;;;;;4.28;2.83;;;25.30;65.20;;;;;;5053385;28;20128;-77
2021/07/03 12:44:09;;;;;;;4.63;2.90;;;25.30;65.10;;;;;;5052678;28;20132;-76
2021/07/03 12:46:40;;;;;;;4.47;2.80;;;25.20;62.20;;;;;;5052237;28;20139;-78
2021/07/03 12:49:08;;;;;;;4.18;2.67;;;25.20;61.10;;;;;;5050892;28;20136;-78
2021/07/03 12:51:38;;;;;;;4.68;2.95;;;25.30;61.30;;;;;;5052984;28;20550;-78
2021/07/03 12:54:07;;;;;;;4.55;3.05;;;25.30;61.20;;;;;;5052334;28;20131;-77